Un Karadeniz — TCTD3 — position and weather

sailwx.info

Track history (hours):
 
Tides and Currents Weather Stations Pressure Air Temp Water Temp Dewpoint Dewpoint Depression Visibility Wind Speed Wind Dir Waves Ship Positions

Un Karadeniz

Last reported at 2015-Sep-01 10:12 UTC. Time now 2015-Sep-01 14:10 UTC.
Position N 36°44' E 023°32'.

Length 193 m; draft 6.9 m.

Type: Ship (hazmat cat A). MMSI: 271002571.

Date/timePositionNaut miles runAvg speedWind from/ knotsBaromVisibWave heightAir tempDewpointWater temp
2015-Sep-01 10:12N 36°44' E 023°32'7118.6
2015-Sep-01 06:23N 37°40' E 024°28'26916.6
2015-Aug-31 14:14N 40°47' E 028°37'1218.5
2015-Aug-31 13:33N 40°48' E 028°53'1817.4
2015-Aug-31 12:33N 40°51' E 029°16'0 0.5
2015-Aug-31 11:33N 40°51' E 029°16'0 0.0
2015-Aug-31 10:34N 40°51' E 029°16'0 0.0
2015-Aug-31 09:34N 40°51' E 029°16'0 0.0
2015-Aug-31 08:31N 40°51' E 029°16'0 0.0
2015-Aug-31 07:34N 40°51' E 029°16'232 7.2
2015-Aug-29 23:32N 38°41' E 025°07'5317.7
2015-Aug-29 20:32N 37°54' E 024°36'6017.5
2015-Aug-29 17:06N 37°05' E 023°52'1018.1
2015-Aug-29 16:34N 36°57' E 023°45'1818.1
2015-Aug-29 15:33N 36°43' E 023°30'1918.5
2015-Aug-29 14:32N 36°28' E 023°16'  
2015-Aug-25 19:33N 41°54' E 016°39'43415.3
2015-Aug-24 15:12N 37°30' E 024°06'1719.5
2015-Aug-24 14:21N 37°44' E 024°18'27017.6
2015-Aug-23 23:05N 40°51' E 028°28'1019.0
2015-Aug-23 22:33N 40°53' E 028°41'1919.0
2015-Aug-23 21:33N 40°50' E 029°06'8 5.6
2015-Aug-23 20:07N 40°51' E 029°16'0 0.0
2015-Aug-23 18:21N 40°51' E 029°16'0 0.0
2015-Aug-23 16:24N 40°51' E 029°16'0 0.0
2015-Aug-23 15:26N 40°51' E 029°16'0 0.0
2015-Aug-23 14:32N 40°51' E 029°16'3 2.4
2015-Aug-23 13:20N 40°49' E 029°14'0 0.1
2015-Aug-23 12:20N 40°49' E 029°14'0 0.0
2015-Aug-23 11:20N 40°49' E 029°14'0 0.0
2015-Aug-23 10:25N 40°49' E 029°14'0 0.0
2015-Aug-23 09:25N 40°49' E 029°14'0 0.1
2015-Aug-23 08:30N 40°49' E 029°14'0 0.1
2015-Aug-23 07:30N 40°49' E 029°14'0 0.1
2015-Aug-23 06:29N 40°49' E 029°14'0 0.0
2015-Aug-23 05:29N 40°49' E 029°14'0 0.0
2015-Aug-23 04:29N 40°49' E 029°14'0 0.1
2015-Aug-23 03:22N 40°49' E 029°14'0 0.1
2015-Aug-23 02:28N 40°49' E 029°14'0 0.0
2015-Aug-23 01:33N 40°49' E 029°14'0 0.0
2015-Aug-23 00:33N 40°49' E 029°14'0 0.0
2015-Aug-22 23:32N 40°49' E 029°14'0 0.0
2015-Aug-22 22:26N 40°49' E 029°14'0 0.0
2015-Aug-22 21:32N 40°49' E 029°14'0 0.0
2015-Aug-22 20:31N 40°49' E 029°14'0 0.0
2015-Aug-22 19:31N 40°49' E 029°14'0 0.0
2015-Aug-22 18:30N 40°49' E 029°14'0 0.0
2015-Aug-22 17:30N 40°49' E 029°14'0 0.0
2015-Aug-22 16:29N 40°49' E 029°14'0 0.0
2015-Aug-22 15:11N 40°49' E 029°14'0 0.0
2015-Aug-22 14:23N 40°49' E 029°14'0 0.0
2015-Aug-22 13:28N 40°49' E 029°14'0 0.0
2015-Aug-22 12:28N 40°49' E 029°14'0 0.0
2015-Aug-22 11:33N 40°49' E 029°14'0 0.1
2015-Aug-22 10:33N 40°49' E 029°14'  
Track history (hours):
 
Tides and Currents Weather Stations Pressure Air Temp Water Temp Dewpoint Dewpoint Depression Visibility Wind Speed Wind Dir Waves Ship Positions

Un Karadeniz

Last reported at 2015-Sep-01 10:12 UTC. Time now 2015-Sep-01 14:10 UTC.
Position N 36°44' E 023°32'.

Length 193 m; draft 6.9 m.

Type: Ship (hazmat cat A). MMSI: 271002571.

Date/timePositionNaut miles runAvg speedWind from/ knotsBaromVisibWave heightAir tempDewpointWater temp
2015-Sep-01 10:12N 36°44' E 023°32'7118.6
2015-Sep-01 06:23N 37°40' E 024°28'26916.6
2015-Aug-31 14:14N 40°47' E 028°37'1218.5
2015-Aug-31 13:33N 40°48' E 028°53'1817.4
2015-Aug-31 12:33N 40°51' E 029°16'0 0.5
2015-Aug-31 11:33N 40°51' E 029°16'0 0.0
2015-Aug-31 10:34N 40°51' E 029°16'0 0.0
2015-Aug-31 09:34N 40°51' E 029°16'0 0.0
2015-Aug-31 08:31N 40°51' E 029°16'0 0.0
2015-Aug-31 07:34N 40°51' E 029°16'232 7.2
2015-Aug-29 23:32N 38°41' E 025°07'5317.7
2015-Aug-29 20:32N 37°54' E 024°36'6017.5
2015-Aug-29 17:06N 37°05' E 023°52'1018.1
2015-Aug-29 16:34N 36°57' E 023°45'1818.1
2015-Aug-29 15:33N 36°43' E 023°30'1918.5
2015-Aug-29 14:32N 36°28' E 023°16'  
2015-Aug-25 19:33N 41°54' E 016°39'43415.3
2015-Aug-24 15:12N 37°30' E 024°06'1719.5
2015-Aug-24 14:21N 37°44' E 024°18'27017.6
2015-Aug-23 23:05N 40°51' E 028°28'1019.0
2015-Aug-23 22:33N 40°53' E 028°41'1919.0
2015-Aug-23 21:33N 40°50' E 029°06'8 5.6
2015-Aug-23 20:07N 40°51' E 029°16'0 0.0
2015-Aug-23 18:21N 40°51' E 029°16'0 0.0
2015-Aug-23 16:24N 40°51' E 029°16'0 0.0
2015-Aug-23 15:26N 40°51' E 029°16'0 0.0
2015-Aug-23 14:32N 40°51' E 029°16'3 2.4
2015-Aug-23 13:20N 40°49' E 029°14'0 0.1
2015-Aug-23 12:20N 40°49' E 029°14'0 0.0
2015-Aug-23 11:20N 40°49' E 029°14'0 0.0
2015-Aug-23 10:25N 40°49' E 029°14'0 0.0
2015-Aug-23 09:25N 40°49' E 029°14'0 0.1
2015-Aug-23 08:30N 40°49' E 029°14'0 0.1
2015-Aug-23 07:30N 40°49' E 029°14'0 0.1
2015-Aug-23 06:29N 40°49' E 029°14'0 0.0
2015-Aug-23 05:29N 40°49' E 029°14'0 0.0
2015-Aug-23 04:29N 40°49' E 029°14'0 0.1
2015-Aug-23 03:22N 40°49' E 029°14'0 0.1
2015-Aug-23 02:28N 40°49' E 029°14'0 0.0
2015-Aug-23 01:33N 40°49' E 029°14'0 0.0
2015-Aug-23 00:33N 40°49' E 029°14'0 0.0
2015-Aug-22 23:32N 40°49' E 029°14'0 0.0
2015-Aug-22 22:26N 40°49' E 029°14'0 0.0
2015-Aug-22 21:32N 40°49' E 029°14'0 0.0
2015-Aug-22 20:31N 40°49' E 029°14'0 0.0
2015-Aug-22 19:31N 40°49' E 029°14'0 0.0
2015-Aug-22 18:30N 40°49' E 029°14'0 0.0
2015-Aug-22 17:30N 40°49' E 029°14'0 0.0
2015-Aug-22 16:29N 40°49' E 029°14'0 0.0
2015-Aug-22 15:11N 40°49' E 029°14'0 0.0
2015-Aug-22 14:23N 40°49' E 029°14'0 0.0
2015-Aug-22 13:28N 40°49' E 029°14'0 0.0
2015-Aug-22 12:28N 40°49' E 029°14'0 0.0
2015-Aug-22 11:33N 40°49' E 029°14'0 0.1
2015-Aug-22 10:33N 40°49' E 029°14'  

Dump ship's entire track history